Terminal Aerodrome Forecast
Issued by NWS Denver/Boulder, CO

Home | Current Version | Previous Version | Text Only | Print | Product List | Glossary On
Versions: 1 2 3 4 5 6 7 8 9 10 11 12 13 14 15 16 17 18 19 20 21 22 23 24 25 26 27 28 29 30 31 32 33 34 35 36 37 38 39 40 41 42 43
000
FTUS45 KBOU 301504 AAA
TAFDEN
TAF AMD
KDEN 301504Z 3015/3118 29006KT P6SM SCT140 BKN200
     FM301800 02007KT P6SM FEW090 SCT120 SCT200
     FM302100 08010KT P6SM VCTS SCT080CB BKN150
      TEMPO 3022/3101 VRB15G25KT BKN080CB
     FM310400 08006KT P6SM SCT110 BKN170
     FM310700 16007KT P6SM FEW120 SCT200
     FM311300 31005KT P6SM VCFG SCT015 BKN030=

USA.gov is the U.S. government's official web portal to all federal, state and local government web resources and services.